createdAt,value
2022-12-01T00:03:50.346Z,11.90
2022-12-01T00:09:16.500Z,13.40
2022-12-01T00:14:22.556Z,9.20
2022-12-01T00:19:26.946Z,6.50
2022-12-01T00:24:29.286Z,10.70
2022-12-01T00:29:31.576Z,8.00
2022-12-01T00:34:34.791Z,9.90
2022-12-01T00:39:37.072Z,7.90
2022-12-01T00:44:39.780Z,7.00
2022-12-01T00:49:44.982Z,9.60
2022-12-01T00:54:47.633Z,9.40
2022-12-01T00:59:50.157Z,6.30
2022-12-01T01:04:52.818Z,6.90
2022-12-01T01:09:55.008Z,7.80
2022-12-01T01:14:57.514Z,6.20
2022-12-01T01:19:59.789Z,6.10
2022-12-01T01:25:02.280Z,6.50
2022-12-01T01:30:05.902Z,5.90
2022-12-01T01:35:08.300Z,9.10
2022-12-01T01:40:11.298Z,10.10
2022-12-01T01:45:24.286Z,8.90
2022-12-01T01:50:28.979Z,6.90
2022-12-01T01:55:35.775Z,6.90
2022-12-01T02:00:44.440Z,6.30
2022-12-01T02:05:47.316Z,5.50
2022-12-01T02:11:49.205Z,5.70
2022-12-01T02:17:10.378Z,6.40
2022-12-01T02:22:52.167Z,5.20
2022-12-01T02:28:21.167Z,7.50
2022-12-01T02:33:39.443Z,4.50
2022-12-01T02:39:31.382Z,8.00
2022-12-01T02:44:43.344Z,11.00
2022-12-01T02:49:52.791Z,8.70
2022-12-01T02:54:56.581Z,6.50
2022-12-01T03:00:00.688Z,5.70
2022-12-01T03:05:28.712Z,9.00
2022-12-01T03:10:49.935Z,6.70
2022-12-01T03:16:11.312Z,10.10
2022-12-01T03:21:40.396Z,16.30
2022-12-01T03:26:49.176Z,10.80
2022-12-01T03:31:59.695Z,9.50
2022-12-01T03:37:10.397Z,8.90
2022-12-01T03:42:27.035Z,7.40
2022-12-01T03:47:32.070Z,7.70
2022-12-01T03:52:56.992Z,7.10
2022-12-01T03:58:17.515Z,5.50
2022-12-01T04:03:25.062Z,8.60
2022-12-01T04:08:28.034Z,8.70
2022-12-01T04:13:30.386Z,7.90
2022-12-01T04:18:32.500Z,6.60
2022-12-01T04:23:53.834Z,7.20
2022-12-01T04:28:56.122Z,6.30
2022-12-01T04:33:59.959Z,6.40
2022-12-01T04:39:03.606Z,5.50
2022-12-01T04:44:05.861Z,9.50
2022-12-01T04:49:08.584Z,10.50
2022-12-01T04:54:11.461Z,10.70
2022-12-01T04:59:14.164Z,11.20
2022-12-01T05:04:16.487Z,11.50
2022-12-01T05:09:20.782Z,13.50
2022-12-01T05:14:23.383Z,18.10
2022-12-01T05:19:45.445Z,28.80
2022-12-01T05:24:47.923Z,21.70
2022-12-01T05:29:50.382Z,25.30
2022-12-01T05:34:53.114Z,13.80
2022-12-01T05:39:55.403Z,16.50
2022-12-01T05:44:57.694Z,12.80
2022-12-01T05:50:05.255Z,17.80
2022-12-01T05:55:09.377Z,18.20
2022-12-01T06:00:13.895Z,20.10
2022-12-01T06:05:16.473Z,21.30
2022-12-01T06:10:19.174Z,20.50
2022-12-01T06:15:21.668Z,21.60
2022-12-01T06:20:24.211Z,20.30
2022-12-01T06:25:26.485Z,17.80
2022-12-01T06:30:29.257Z,18.40
2022-12-01T06:35:31.747Z,17.90
2022-12-01T06:40:34.135Z,24.90
2022-12-01T06:45:36.404Z,23.10
2022-12-01T06:50:38.610Z,23.70
2022-12-01T06:55:41.105Z,25.50
2022-12-01T07:00:46.433Z,71.70
2022-12-01T07:06:01.498Z,50.00
2022-12-01T07:11:12.143Z,41.50
2022-12-01T07:16:14.551Z,37.80
2022-12-01T07:21:17.023Z,18.50
2022-12-01T07:26:19.420Z,21.00
2022-12-01T07:31:22.033Z,21.20
2022-12-01T07:36:24.398Z,22.40
2022-12-01T07:41:26.997Z,20.30
2022-12-01T07:46:30.280Z,21.10
2022-12-01T07:51:34.857Z,22.50
2022-12-01T07:56:37.469Z,25.20
2022-12-01T08:01:44.264Z,21.90
2022-12-01T08:06:47.464Z,17.50
2022-12-01T08:11:49.841Z,20.90
2022-12-01T08:16:52.337Z,21.20
2022-12-01T08:21:54.522Z,26.80
2022-12-01T08:26:56.914Z,20.40
2022-12-01T08:31:59.220Z,18.70
2022-12-01T08:37:01.693Z,21.30
2022-12-01T08:42:03.975Z,25.50
2022-12-01T08:47:06.478Z,23.10
2022-12-01T08:52:08.876Z,22.20
2022-12-01T08:57:12.079Z,24.60
2022-12-01T09:02:16.454Z,18.30
2022-12-01T09:07:26.165Z,22.40
2022-12-01T09:12:30.220Z,22.40
2022-12-01T09:17:32.551Z,15.10
2022-12-01T09:22:34.988Z,22.80
2022-12-01T09:27:37.480Z,22.80
2022-12-01T09:32:39.873Z,19.60
2022-12-01T09:37:42.205Z,22.50
2022-12-01T09:42:47.469Z,13.20
2022-12-01T09:47:49.914Z,23.40
2022-12-01T09:53:08.280Z,20.60
2022-12-01T09:58:20.341Z,12.40
2022-12-01T10:03:47.962Z,13.70
2022-12-01T10:09:32.563Z,13.30
2022-12-01T10:14:37.654Z,18.00
2022-12-01T10:20:18.189Z,27.90
2022-12-01T10:25:28.483Z,21.60
2022-12-01T10:30:32.453Z,23.00
2022-12-01T10:35:36.753Z,73.50
2022-12-01T10:40:42.125Z,39.90
2022-12-01T10:45:45.241Z,33.30
2022-12-01T10:51:14.745Z,23.40
2022-12-01T10:56:21.193Z,17.60
2022-12-01T11:01:34.323Z,22.70
2022-12-01T11:06:37.804Z,16.10
2022-12-01T11:11:41.009Z,31.40
2022-12-01T11:16:47.847Z,39.70
2022-12-01T11:21:55.449Z,28.60
2022-12-01T11:27:00.442Z,25.80
2022-12-01T11:32:27.779Z,22.90
2022-12-01T11:37:50.470Z,27.20
2022-12-01T11:43:06.254Z,20.20
2022-12-01T11:48:20.779Z,31.40
2022-12-01T11:53:34.584Z,22.80
2022-12-01T11:58:36.824Z,28.90
2022-12-01T12:04:15.863Z,33.50
2022-12-01T12:09:43.520Z,36.30
2022-12-01T12:15:12.510Z,31.10
2022-12-01T12:20:57.398Z,89.70
2022-12-01T12:26:24.684Z,29.10
2022-12-01T12:32:10.754Z,25.10
2022-12-01T12:37:34.144Z,50.30
2022-12-01T12:43:18.414Z,33.80
2022-12-01T12:49:03.545Z,41.70
2022-12-01T12:54:12.502Z,24.80
2022-12-01T12:59:21.042Z,33.50
2022-12-01T13:04:40.515Z,20.10
2022-12-01T13:09:52.320Z,24.70
2022-12-01T13:15:21.362Z,26.80
2022-12-01T13:20:29.409Z,16.00
2022-12-01T13:25:39.887Z,23.00
2022-12-01T13:31:06.667Z,36.50
2022-12-01T13:36:44.991Z,40.10
2022-12-01T13:41:39.345Z,41.30
2022-12-01T13:46:42.296Z,72.70
2022-12-01T13:52:23.043Z,30.50
2022-12-01T13:57:31.347Z,58.20
2022-12-01T14:02:36.131Z,24.40
2022-12-01T14:07:40.116Z,46.40
2022-12-01T14:12:45.741Z,36.40
2022-12-01T14:18:01.393Z,43.50
2022-12-01T14:23:13.539Z,49.90
2022-12-01T14:28:17.924Z,63.90
2022-12-01T14:33:39.179Z,40.40
2022-12-01T14:38:45.947Z,103.90
2022-12-01T14:44:06.363Z,69.10
2022-12-01T14:49:31.349Z,44.70
2022-12-01T14:54:49.209Z,140.10
2022-12-01T15:00:16.646Z,103.30
2022-12-01T15:05:28.655Z,122.90
2022-12-01T15:10:36.735Z,81.70
2022-12-01T15:16:00.391Z,114.80
2022-12-01T15:21:33.486Z,100.80
2022-12-01T15:26:48.361Z,49.00
2022-12-01T15:32:01.091Z,46.00
2022-12-01T15:37:11.430Z,47.00
2022-12-01T15:42:27.661Z,148.50
2022-12-01T15:47:47.068Z,98.80
2022-12-01T15:52:50.915Z,101.50
2022-12-01T15:57:56.239Z,125.10
2022-12-01T16:03:02.091Z,56.90
2022-12-01T16:08:35.292Z,86.80
2022-12-01T16:13:55.219Z,41.90
2022-12-01T16:19:20.789Z,39.90
2022-12-01T16:24:35.649Z,107.50
2022-12-01T16:29:59.118Z,50.90
2022-12-01T16:35:04.307Z,41.40
2022-12-01T16:40:09.586Z,44.30
2022-12-01T16:45:16.363Z,62.00
2022-12-01T16:50:22.943Z,131.20
2022-12-01T16:55:51.056Z,113.30
2022-12-01T17:00:56.201Z,95.40
2022-12-01T17:06:02.788Z,96.40
2022-12-01T17:11:07.634Z,100.80
2022-12-01T17:16:17.998Z,172.20
2022-12-01T17:21:22.519Z,92.70
2022-12-01T17:26:28.740Z,89.90
2022-12-01T17:31:33.238Z,75.40
2022-12-01T17:36:38.727Z,112.70
2022-12-01T17:41:45.835Z,198.20
2022-12-01T17:46:51.327Z,207.60
2022-12-01T17:51:57.076Z,74.60
2022-12-01T17:57:04.736Z,137.30
2022-12-01T18:02:14.407Z,149.50
2022-12-01T18:07:18.737Z,80.20
2022-12-01T18:12:22.831Z,76.10
2022-12-01T18:17:29.823Z,61.50
2022-12-01T18:22:35.481Z,36.10
2022-12-01T18:27:41.320Z,34.00
2022-12-01T18:32:46.271Z,29.50
2022-12-01T18:37:50.909Z,30.70
2022-12-01T18:42:59.634Z,65.80
2022-12-01T18:48:11.081Z,64.90
2022-12-01T18:53:19.722Z,59.80
2022-12-01T18:58:27.310Z,46.10
2022-12-01T19:03:34.523Z,34.40
2022-12-01T19:08:40.396Z,40.70
2022-12-01T19:13:46.174Z,43.20
2022-12-01T19:18:56.240Z,40.40
2022-12-01T19:24:04.248Z,64.30
2022-12-01T19:29:17.461Z,44.00
2022-12-01T19:34:24.344Z,56.90
2022-12-01T19:39:29.552Z,28.00
2022-12-01T19:44:36.320Z,46.10
2022-12-01T19:49:43.040Z,46.50
2022-12-01T19:54:56.107Z,30.10
2022-12-01T20:00:02.697Z,25.80
2022-12-01T20:05:10.777Z,93.90
2022-12-01T20:10:20.389Z,37.20
2022-12-01T20:15:26.955Z,28.10
2022-12-01T20:20:34.860Z,22.00
2022-12-01T20:25:40.748Z,24.80
2022-12-01T20:30:45.135Z,50.90
2022-12-01T20:35:53.467Z,79.90
2022-12-01T20:40:59.229Z,37.40
2022-12-01T20:46:06.725Z,23.40
2022-12-01T20:51:14.233Z,48.40
2022-12-01T20:56:19.255Z,25.70
2022-12-01T21:01:23.994Z,40.30
2022-12-01T21:06:29.573Z,35.90
2022-12-01T21:12:09.803Z,21.80
2022-12-01T21:18:01.564Z,27.80
2022-12-01T21:23:17.886Z,20.00
2022-12-01T21:28:26.726Z,20.80
2022-12-01T21:33:37.037Z,26.60
2022-12-01T21:38:43.698Z,22.60
2022-12-01T21:43:48.225Z,16.60
2022-12-01T21:48:52.678Z,18.00
2022-12-01T21:53:57.973Z,21.50
2022-12-01T21:59:24.049Z,32.60
2022-12-01T22:04:33.475Z,20.90
2022-12-01T22:09:37.308Z,25.00
2022-12-01T22:14:40.204Z,17.70
2022-12-01T22:19:57.521Z,22.10
2022-12-01T22:25:22.739Z,15.00
2022-12-01T22:30:25.423Z,24.40
2022-12-01T22:35:43.077Z,24.00
2022-12-01T22:40:48.238Z,20.90
2022-12-01T22:46:00.360Z,18.50
2022-12-01T22:51:27.921Z,15.80
2022-12-01T22:56:45.274Z,31.60
2022-12-01T23:02:01.825Z,22.20
2022-12-01T23:07:27.947Z,17.90
2022-12-01T23:12:33.984Z,19.60
2022-12-01T23:17:40.227Z,47.10
2022-12-01T23:22:42.798Z,26.10
2022-12-01T23:27:49.576Z,15.50
2022-12-01T23:33:29.055Z,19.70
2022-12-01T23:38:42.318Z,28.60
2022-12-01T23:43:46.294Z,22.80
2022-12-01T23:48:53.935Z,44.20
2022-12-01T23:54:00.535Z,25.80
2022-12-01T23:59:02.926Z,13.10
